createdAt,value
2022-12-19T00:00:39.475Z,201.98
2022-12-19T00:03:56.275Z,181.68
2022-12-19T00:07:08.382Z,182.18
2022-12-19T00:10:20.537Z,175.60
2022-12-19T00:13:40.977Z,172.18
2022-12-19T00:16:48.172Z,145.25
2022-12-19T00:20:00.433Z,148.13
2022-12-19T00:23:12.535Z,150.00
2022-12-19T00:26:27.167Z,178.13
2022-12-19T00:29:39.503Z,159.68
2022-12-19T00:32:51.994Z,168.68
2022-12-19T00:36:12.421Z,171.43
2022-12-19T00:39:24.423Z,194.08
2022-12-19T00:42:37.133Z,190.08
2022-12-19T00:45:49.186Z,207.30
2022-12-19T00:49:02.813Z,184.95
2022-12-19T00:52:15.660Z,176.85
2022-12-19T00:55:27.571Z,175.15
2022-12-19T00:58:44.936Z,173.05
2022-12-19T01:01:53.868Z,168.08
2022-12-19T01:05:05.934Z,164.58
2022-12-19T01:08:18.505Z,181.98
2022-12-19T01:11:42.374Z,166.13
2022-12-19T01:14:54.312Z,174.03
2022-12-19T01:18:10.344Z,156.93
2022-12-19T01:21:22.256Z,167.08
2022-12-19T01:24:36.313Z,140.48
2022-12-19T01:27:48.420Z,151.45
2022-12-19T01:31:00.254Z,160.68
2022-12-19T01:34:12.313Z,168.50
2022-12-19T01:37:24.937Z,166.83
2022-12-19T01:40:37.642Z,163.78
2022-12-19T01:44:08.806Z,171.98
2022-12-19T01:47:21.415Z,181.50
2022-12-19T01:50:39.233Z,172.28
2022-12-19T01:53:58.671Z,178.40
2022-12-19T01:57:15.524Z,178.48
2022-12-19T02:00:29.255Z,172.30
2022-12-19T02:03:43.511Z,182.25
2022-12-19T02:07:00.179Z,172.70
2022-12-19T02:10:15.515Z,167.68
2022-12-19T02:13:29.963Z,157.65
2022-12-19T02:16:51.966Z,153.60
2022-12-19T02:20:45.031Z,160.55
2022-12-19T02:24:50.947Z,162.65
2022-12-19T02:28:42.672Z,169.95
2022-12-19T02:31:59.945Z,170.00
2022-12-19T02:35:21.168Z,165.93
2022-12-19T02:38:40.088Z,156.40
2022-12-19T02:41:57.244Z,156.68
2022-12-19T02:45:13.406Z,138.28
2022-12-19T02:48:28.313Z,142.23
2022-12-19T02:51:40.486Z,136.08
2022-12-19T02:54:55.469Z,129.30
2022-12-19T02:58:56.820Z,151.13
2022-12-19T03:02:14.618Z,142.90
2022-12-19T03:05:31.298Z,135.70
2022-12-19T03:08:50.642Z,141.73
2022-12-19T03:12:11.612Z,136.20
2022-12-19T03:15:24.519Z,140.80
2022-12-19T03:18:39.472Z,132.08
2022-12-19T03:21:54.475Z,129.70
2022-12-19T03:25:06.807Z,131.35
2022-12-19T03:28:24.020Z,131.45
2022-12-19T03:31:39.311Z,133.38
2022-12-19T03:34:55.477Z,141.15
2022-12-19T03:38:10.823Z,146.10
2022-12-19T03:41:27.454Z,147.20
2022-12-19T03:44:43.854Z,138.35
2022-12-19T03:48:00.361Z,140.85
2022-12-19T03:54:31.954Z,137.68
2022-12-19T03:57:49.780Z,143.45
2022-12-19T04:01:03.338Z,140.18
2022-12-19T04:04:16.741Z,142.80
2022-12-19T04:07:30.280Z,136.85
2022-12-19T04:10:48.710Z,123.90
2022-12-19T04:14:05.976Z,132.70
2022-12-19T04:17:24.547Z,136.20
2022-12-19T04:20:37.851Z,134.48
2022-12-19T04:23:54.891Z,135.85
2022-12-19T04:27:09.684Z,137.63
2022-12-19T04:30:23.705Z,131.65
2022-12-19T04:33:35.696Z,114.13
2022-12-19T04:36:47.694Z,123.93
2022-12-19T04:39:59.689Z,121.10
2022-12-19T04:43:11.898Z,121.90
2022-12-19T04:46:24.271Z,122.50
2022-12-19T04:49:37.953Z,116.05
2022-12-19T04:52:53.270Z,105.28
2022-12-19T04:56:11.322Z,96.08
2022-12-19T04:59:23.367Z,97.13
2022-12-19T05:02:35.722Z,102.18
2022-12-19T05:05:47.784Z,96.50
2022-12-19T05:08:59.765Z,101.53
2022-12-19T05:12:12.920Z,99.38
2022-12-19T05:15:25.036Z,92.98
2022-12-19T05:18:37.837Z,92.45
2022-12-19T05:21:49.597Z,97.95
2022-12-19T05:25:01.540Z,110.70
2022-12-19T05:28:13.562Z,102.33
2022-12-19T05:31:27.333Z,91.88
2022-12-19T05:34:39.433Z,91.28
2022-12-19T05:37:51.292Z,84.40
2022-12-19T05:41:03.228Z,83.88
2022-12-19T05:44:15.391Z,85.13
2022-12-19T05:47:27.325Z,130.85
2022-12-19T05:50:39.530Z,128.70
2022-12-19T05:53:54.405Z,107.83
2022-12-19T05:57:06.206Z,111.50
2022-12-19T06:00:22.084Z,117.33
2022-12-19T06:03:33.986Z,113.98
2022-12-19T06:06:46.158Z,113.28
2022-12-19T06:09:59.089Z,115.50
2022-12-19T06:13:11.104Z,110.33
2022-12-19T06:16:25.421Z,109.95
2022-12-19T06:19:37.678Z,110.95
2022-12-19T06:22:49.545Z,109.88
2022-12-19T06:26:04.208Z,106.98
2022-12-19T06:29:16.890Z,106.30
2022-12-19T06:32:31.323Z,106.83
2022-12-19T06:35:42.992Z,106.35
2022-12-19T06:38:56.005Z,111.53
2022-12-19T06:42:23.162Z,112.43
2022-12-19T06:45:35.017Z,176.58
2022-12-19T06:48:47.306Z,115.03
2022-12-19T06:52:03.918Z,110.50
2022-12-19T06:55:16.210Z,120.15
2022-12-19T06:58:28.652Z,113.08
2022-12-19T07:01:51.049Z,112.30
2022-12-19T07:05:08.677Z,99.85
2022-12-19T07:08:20.904Z,96.93
2022-12-19T07:11:32.838Z,93.40
2022-12-19T07:14:47.766Z,90.53
2022-12-19T07:17:59.620Z,96.03
2022-12-19T07:21:14.823Z,88.45
2022-12-19T07:24:27.153Z,87.30
2022-12-19T07:27:40.060Z,96.43
2022-12-19T07:30:52.164Z,97.15
2022-12-19T07:34:04.172Z,86.18
2022-12-19T07:37:16.091Z,105.13
2022-12-19T07:40:28.065Z,99.25
2022-12-19T07:43:40.277Z,89.23
2022-12-19T07:46:52.201Z,92.65
2022-12-19T07:50:04.595Z,88.85
2022-12-19T07:53:16.480Z,89.23
2022-12-19T07:56:28.399Z,103.20
2022-12-19T07:59:40.595Z,89.65
2022-12-19T08:02:53.344Z,96.28
2022-12-19T08:06:10.832Z,100.65
2022-12-19T08:09:23.427Z,97.13
2022-12-19T08:12:35.452Z,104.90
2022-12-19T08:15:47.457Z,101.50
2022-12-19T08:18:59.872Z,109.18
2022-12-19T08:22:11.785Z,103.85
2022-12-19T08:25:23.917Z,137.28
2022-12-19T08:28:37.082Z,191.75
2022-12-19T08:31:48.906Z,126.10
2022-12-19T08:35:00.796Z,111.43
2022-12-19T08:38:12.914Z,111.13
2022-12-19T08:41:25.430Z,110.43
2022-12-19T08:44:37.386Z,104.68
2022-12-19T08:47:49.854Z,104.53
2022-12-19T08:51:05.214Z,105.38
2022-12-19T08:54:17.384Z,120.95
2022-12-19T08:57:29.209Z,106.55
2022-12-19T09:00:41.115Z,99.50
2022-12-19T09:05:11.148Z,91.70
2022-12-19T09:07:08.300Z,95.68
2022-12-19T09:10:20.719Z,94.15
2022-12-19T09:13:33.493Z,96.98
2022-12-19T09:16:45.618Z,95.05
2022-12-19T09:19:57.751Z,95.48
2022-12-19T09:23:09.843Z,101.33
2022-12-19T09:26:22.997Z,128.00
2022-12-19T09:29:36.281Z,96.85
2022-12-19T09:32:48.298Z,90.88
2022-12-19T09:36:02.045Z,90.88
2022-12-19T09:39:16.632Z,81.33
2022-12-19T09:42:46.383Z,80.05
2022-12-19T09:46:04.838Z,87.20
2022-12-19T09:49:23.333Z,80.55
2022-12-19T09:52:40.058Z,85.25
2022-12-19T09:59:09.166Z,84.43
2022-12-19T10:02:38.817Z,81.00
2022-12-19T10:07:07.900Z,87.25
2022-12-19T10:11:18.131Z,82.20
2022-12-19T10:12:51.392Z,88.18
2022-12-19T10:16:04.701Z,92.10
2022-12-19T10:19:23.512Z,89.63
2022-12-19T10:22:43.027Z,85.63
2022-12-19T10:26:06.897Z,84.43
2022-12-19T10:29:46.606Z,83.97
2022-12-19T10:33:11.172Z,82.58
2022-12-19T10:36:48.679Z,93.60
2022-12-19T10:39:49.463Z,95.92
2022-12-19T10:43:10.521Z,85.88
2022-12-19T10:46:28.109Z,90.75
2022-12-19T10:49:40.166Z,91.95
2022-12-19T10:53:03.579Z,88.20
2022-12-19T10:56:36.747Z,81.90
2022-12-19T10:59:42.779Z,85.22
2022-12-19T11:03:00.017Z,122.58
2022-12-19T11:06:33.692Z,84.33
2022-12-19T11:09:52.419Z,85.35
2022-12-19T11:19:00.343Z,99.68
2022-12-19T11:21:41.834Z,87.80
2022-12-19T11:29:16.310Z,90.18
2022-12-19T11:30:37.377Z,89.85
2022-12-19T11:30:43.171Z,88.48
2022-12-19T11:31:43.801Z,125.58
2022-12-19T11:32:49.724Z,107.15
2022-12-19T11:36:04.845Z,85.05
2022-12-19T11:39:23.168Z,95.85
2022-12-19T11:42:42.242Z,96.40
2022-12-19T11:46:01.242Z,101.08
2022-12-19T11:49:21.646Z,89.53
2022-12-19T11:56:01.988Z,99.18
2022-12-19T11:59:23.151Z,103.30
2022-12-19T12:03:22.211Z,105.55
2022-12-19T12:06:38.624Z,117.00
2022-12-19T12:12:36.810Z,114.60
2022-12-19T12:20:23.566Z,122.30
2022-12-19T12:31:04.850Z,154.50
2022-12-19T12:31:08.709Z,129.48
2022-12-19T12:31:31.375Z,119.38
2022-12-19T12:31:40.238Z,123.43
2022-12-19T12:31:46.190Z,129.28
2022-12-19T12:35:48.801Z,115.33
2022-12-19T12:40:39.525Z,102.90
2022-12-19T12:44:04.966Z,102.98
2022-12-19T12:47:25.711Z,107.80
2022-12-19T12:50:39.852Z,115.75
2022-12-19T12:53:57.564Z,110.18
2022-12-19T12:57:10.833Z,103.83
2022-12-19T13:00:28.886Z,116.38
2022-12-19T13:03:41.132Z,124.88
2022-12-19T13:07:29.423Z,155.00
2022-12-19T13:10:43.731Z,128.70
2022-12-19T13:14:04.702Z,119.68
2022-12-19T13:17:18.285Z,117.30
2022-12-19T13:20:50.881Z,119.15
2022-12-19T13:24:27.729Z,118.48
2022-12-19T13:27:49.649Z,118.75
2022-12-19T13:31:27.751Z,125.48
2022-12-19T13:34:52.689Z,132.63
2022-12-19T13:40:00.501Z,120.88
2022-12-19T13:41:59.797Z,126.75
2022-12-19T13:45:23.767Z,123.18
2022-12-19T13:48:49.993Z,129.78
2022-12-19T13:52:08.400Z,132.38
2022-12-19T13:55:22.431Z,124.93
2022-12-19T13:58:41.163Z,123.13
2022-12-19T14:01:57.158Z,128.70
2022-12-19T14:05:11.085Z,131.03
2022-12-19T14:08:28.032Z,137.25
2022-12-19T14:12:29.684Z,131.18
2022-12-19T14:15:13.975Z,139.30
2022-12-19T14:18:43.434Z,126.78
2022-12-19T14:22:04.209Z,127.23
2022-12-19T14:26:09.739Z,137.33
2022-12-19T14:28:30.077Z,127.35
2022-12-19T14:32:23.903Z,140.35
2022-12-19T14:36:08.442Z,141.90
2022-12-19T14:39:20.892Z,140.73
2022-12-19T14:42:02.808Z,139.98
2022-12-19T14:53:51.549Z,139.63
2022-12-19T14:54:11.035Z,135.38
2022-12-19T14:54:34.889Z,135.73
2022-12-19T14:59:46.410Z,134.25
2022-12-19T15:02:59.699Z,137.75
2022-12-19T15:07:05.469Z,134.83
2022-12-19T15:11:01.104Z,146.20
2022-12-19T15:14:54.327Z,137.95
2022-12-19T15:16:36.466Z,136.00
2022-12-19T15:19:48.963Z,139.05
2022-12-19T15:23:00.935Z,136.25
2022-12-19T15:26:18.698Z,138.60
2022-12-19T15:29:30.942Z,137.48
2022-12-19T15:32:43.032Z,132.68
2022-12-19T15:35:55.749Z,147.75
2022-12-19T15:39:07.999Z,142.15
2022-12-19T15:42:27.354Z,137.70
2022-12-19T15:45:41.202Z,144.93
2022-12-19T15:48:57.505Z,148.48
2022-12-19T15:52:15.343Z,140.63
2022-12-19T15:55:29.720Z,134.85
2022-12-19T15:58:41.641Z,140.38
2022-12-19T16:01:54.000Z,142.85
2022-12-19T16:05:06.366Z,142.55
2022-12-19T16:08:23.454Z,148.23
2022-12-19T16:11:37.068Z,142.85
2022-12-19T16:14:51.362Z,142.85
2022-12-19T16:18:07.034Z,147.58
2022-12-19T16:21:33.922Z,147.23
2022-12-19T16:24:44.124Z,142.98
2022-12-19T16:28:00.680Z,143.93
2022-12-19T16:31:23.615Z,146.43
2022-12-19T16:34:36.407Z,155.23
2022-12-19T16:37:48.733Z,156.43
2022-12-19T16:41:02.917Z,145.63
2022-12-19T16:44:22.442Z,153.85
2022-12-19T16:47:34.679Z,160.58
2022-12-19T16:50:47.107Z,160.53
2022-12-19T16:54:02.056Z,156.23
2022-12-19T16:57:22.428Z,170.75
2022-12-19T17:00:34.768Z,159.20
2022-12-19T17:03:49.923Z,151.18
2022-12-19T17:07:02.672Z,153.28
2022-12-19T17:10:21.339Z,166.48
2022-12-19T17:13:32.789Z,165.10
2022-12-19T17:16:46.622Z,166.28
2022-12-19T17:20:02.428Z,165.88
2022-12-19T17:23:22.350Z,159.78
2022-12-19T17:26:35.634Z,170.58
2022-12-19T17:29:47.944Z,172.88
2022-12-19T17:33:03.429Z,159.30
2022-12-19T17:36:24.851Z,172.45
2022-12-19T17:39:35.978Z,169.75
2022-12-19T17:42:48.160Z,167.05
2022-12-19T17:46:00.723Z,174.25
2022-12-19T17:49:16.201Z,170.18
2022-12-19T17:52:29.775Z,174.28
2022-12-19T17:55:41.693Z,162.50
2022-12-19T17:58:55.736Z,177.10
2022-12-19T18:02:07.984Z,157.80
2022-12-19T18:05:28.127Z,177.43
2022-12-19T18:08:40.436Z,177.75
2022-12-19T18:11:53.256Z,169.65
2022-12-19T18:15:06.032Z,161.88
2022-12-19T18:18:23.962Z,178.60
2022-12-19T18:21:36.013Z,175.10
2022-12-19T18:24:48.222Z,178.53
2022-12-19T18:28:01.157Z,167.38
2022-12-19T18:31:22.271Z,178.53
2022-12-19T18:34:36.879Z,172.93
2022-12-19T18:37:49.120Z,173.55
2022-12-19T18:41:01.359Z,171.53
2022-12-19T18:44:13.443Z,178.95
2022-12-19T18:47:30.374Z,174.25
2022-12-19T18:50:42.567Z,172.60
2022-12-19T18:53:55.815Z,169.10
2022-12-19T18:57:08.005Z,160.95
2022-12-19T19:00:25.478Z,166.00
2022-12-19T19:03:41.988Z,167.03
2022-12-19T19:06:55.461Z,162.43
2022-12-19T19:10:10.393Z,174.20
2022-12-19T19:13:26.952Z,158.78
2022-12-19T19:16:40.082Z,165.83
2022-12-19T19:19:52.710Z,165.10
2022-12-19T19:23:05.481Z,166.88
2022-12-19T19:26:18.035Z,170.38
2022-12-19T19:29:30.235Z,166.05
2022-12-19T19:32:45.206Z,167.90
2022-12-19T19:36:04.655Z,167.03
2022-12-19T19:39:15.211Z,165.85
2022-12-19T19:42:27.409Z,159.45
2022-12-19T19:45:43.138Z,164.30
2022-12-19T19:48:53.736Z,161.25
2022-12-19T19:52:06.041Z,167.43
2022-12-19T19:55:19.171Z,159.78
2022-12-19T19:58:31.685Z,169.10
2022-12-19T20:01:43.976Z,167.73
2022-12-19T20:04:56.239Z,168.35
2022-12-19T20:08:08.638Z,166.23
2022-12-19T20:11:21.888Z,174.78
2022-12-19T20:14:34.660Z,173.83
2022-12-19T20:17:46.876Z,173.15
2022-12-19T20:20:59.274Z,165.38
2022-12-19T20:24:12.910Z,180.45
2022-12-19T20:27:24.972Z,158.15
2022-12-19T20:30:37.441Z,171.05
2022-12-19T20:33:52.920Z,158.80
2022-12-19T20:37:05.931Z,163.13
2022-12-19T20:40:19.612Z,166.40
2022-12-19T20:43:32.345Z,155.45
2022-12-19T20:46:44.928Z,159.58
2022-12-19T20:49:57.673Z,160.53
2022-12-19T20:53:10.073Z,158.43
2022-12-19T20:56:26.307Z,163.48
2022-12-19T20:59:38.908Z,156.35
2022-12-19T21:03:26.275Z,162.48
2022-12-19T21:06:06.339Z,149.73
2022-12-19T21:09:18.532Z,152.28
2022-12-19T21:12:30.660Z,148.03
2022-12-19T21:15:42.794Z,150.98
2022-12-19T21:18:56.386Z,154.48
2022-12-19T21:22:08.315Z,154.75
2022-12-19T21:25:21.078Z,151.55
2022-12-19T21:28:33.945Z,153.28
2022-12-19T21:31:45.883Z,158.20
2022-12-19T21:34:59.839Z,156.38
2022-12-19T21:38:12.067Z,164.00
2022-12-19T21:41:24.953Z,161.45
2022-12-19T21:44:37.564Z,155.43
2022-12-19T21:47:50.806Z,160.05
2022-12-19T21:51:04.198Z,156.50
2022-12-19T21:54:17.041Z,157.20
2022-12-19T21:57:29.023Z,154.63
2022-12-19T22:00:41.386Z,166.25
2022-12-19T22:03:53.945Z,155.13
2022-12-19T22:07:06.466Z,156.23
2022-12-19T22:10:19.692Z,165.90
2022-12-19T22:13:32.203Z,159.40
2022-12-19T22:16:44.690Z,171.00
2022-12-19T22:19:57.022Z,163.07
2022-12-19T22:23:13.111Z,159.68
2022-12-19T22:26:26.822Z,152.28
2022-12-19T22:29:38.934Z,162.35
2022-12-19T22:32:50.965Z,154.45
2022-12-19T22:36:04.951Z,164.95
2022-12-19T22:39:19.714Z,156.58
2022-12-19T22:42:33.225Z,155.53
2022-12-19T22:45:45.584Z,153.78
2022-12-19T22:48:59.065Z,170.85
2022-12-19T22:52:11.275Z,160.40
2022-12-19T22:55:23.688Z,156.28
2022-12-19T22:58:36.344Z,162.78
2022-12-19T23:01:49.538Z,154.33
2022-12-19T23:05:01.836Z,160.00
2022-12-19T23:08:14.151Z,156.88
2022-12-19T23:11:29.896Z,154.50
2022-12-19T23:14:41.970Z,149.10
2022-12-19T23:17:53.965Z,165.13
2022-12-19T23:21:17.549Z,156.25
2022-12-19T23:24:29.727Z,174.03
2022-12-19T23:27:41.630Z,168.63
2022-12-19T23:30:53.749Z,166.95
2022-12-19T23:34:06.797Z,174.33
2022-12-19T23:37:18.978Z,165.08
2022-12-19T23:40:31.164Z,159.68
2022-12-19T23:43:45.784Z,173.33
2022-12-19T23:47:02.987Z,165.50
2022-12-19T23:50:14.756Z,169.25
2022-12-19T23:53:26.649Z,161.58
2022-12-19T23:56:39.920Z,154.88
2022-12-19T23:59:51.876Z,153.70
